Armstrong, Texas
Current Conditions -  °F | °C
As of 6:55 AM on Friday 31 Oct 2014 (Local Time) from KBKS Reporting Station
Clear Clear  
Wind Chill: 63°   Ceiling: Unl
Heat Index: 63°   Visibility: 5mi
Dew Point: 62°   Wind: 0mph
Humidity: 97%   Direction: NA
Pressure: 30.08"   Gusts: NA
Location:  26.92°N, 97.79°W
Report Text: KBKS 311155Z AUTO 00000KT 5SM CLR 17/17 A3008 RMK AO1 T01700166 10196 20167
Loading
Personal Weather Stations






























Interactive Weather Map
Tropical Storm Tracking
New forecast layout! Learn more

10-Day Weather Forecast

Advertisements
Track Severe Weather on mobile